Time;durP1;ratioP1;P1;durP2;ratioP2;P2;SDS_P1;SDS_P2;PMS_P1;PMS_P2;Temp;Humidity;BMP_temperature;BMP_pressure;BME280_temperature;BME280_humidity;BME280_pressure;Samples;Min_cycle;Max_cycle;Signal;HPM_P1;HPM_P2
2022/01/16 00:04:34;;;;;;;16.17;5.05;;;;;;;;;;5039220;28;20040;-77
2022/01/16 00:07:03;;;;;;;11.85;3.45;;;;;;;;;;5044412;28;20044;-77
2022/01/16 00:09:30;;;;;;;14.30;4.25;;;;;;;;;;5039943;28;20037;-77
2022/01/16 00:11:59;;;;;;;11.40;4.85;;;;;;;;;;5039991;28;20166;-78
2022/01/16 00:14:30;;;;;;;13.48;4.53;;;;;;;;;;5038578;28;20040;-78
2022/01/16 00:16:55;;;;;;;15.18;6.43;;;;;;;;;;5041981;28;20029;-77
2022/01/16 00:19:22;;;;;;;11.02;3.67;;;;;;;;;;5041600;28;20538;-77
2022/01/16 00:21:48;;;;;;;9.02;3.20;;;;;;;;;;5046421;28;20485;-76
2022/01/16 00:24:14;;;;;;;15.70;5.30;;;;;;;;;;5044052;28;20033;-77
2022/01/16 00:26:41;;;;;;;10.02;3.78;;;;;;;;;;5034865;28;20044;-77
2022/01/16 00:29:07;;;;;;;11.48;5.45;;;;;;;;;;5038054;28;20036;-77
2022/01/16 00:31:34;;;;;;;12.10;3.85;;;;;;;;;;5040886;28;20068;-76
2022/01/16 00:34:00;;;;;;;14.23;5.03;;;;;;;;;;5041044;28;20028;-77
2022/01/16 00:36:26;;;;;;;14.30;6.28;;;;;;;;;;5047104;28;21990;-77
2022/01/16 00:38:57;;;;;;;19.60;5.78;;;;;;;;;;5043213;28;20020;-77
2022/01/16 00:41:23;;;;;;;11.05;5.43;;;;;;;;;;5043661;28;20596;-78
2022/01/16 00:43:50;;;;;;;12.45;5.22;;;;;;;;;;5038999;28;20045;-77
2022/01/16 00:46:16;;;;;;;12.75;4.20;;;;;;;;;;5036682;28;20819;-77
2022/01/16 00:48:42;;;;;;;9.05;4.47;;;;;;;;;;5040456;28;20472;-77
2022/01/16 00:51:08;;;;;;;12.82;4.47;;;;;;;;;;5040526;28;20536;-77
2022/01/16 00:53:34;;;;;;;15.00;5.82;;;;;;;;;;5045377;28;20033;-77
2022/01/16 00:56:00;;;;;;;8.07;4.28;;;;;;;;;;5044678;28;20120;-76
2022/01/16 00:58:26;;;;;;;14.15;5.38;;;;;;;;;;5036537;28;20041;-77
2022/01/16 01:00:52;;;;;;;12.95;3.95;;;;;;;;;;5038507;28;20067;-77
2022/01/16 01:03:18;;;;;;;11.85;3.53;;;;;;;;;;5042014;28;20056;-77
2022/01/16 01:05:44;;;;;;;8.85;3.80;;;;;;;;;;5040400;28;20025;-76
2022/01/16 01:08:10;;;;;;;13.48;5.68;;;;;;;;;;5043894;28;20032;-77
2022/01/16 01:10:39;;;;;;;10.75;4.45;;;;;;;;;;5037442;28;20500;-77
2022/01/16 01:13:22;;;;;;;11.30;4.38;;;;;;;;;;5041821;28;20476;-77
2022/01/16 01:15:51;;;;;;;13.48;5.63;;;;;;;;;;5040464;28;20112;-77
2022/01/16 01:18:17;;;;;;;23.33;4.47;;;;;;;;;;5043403;28;20033;-77
2022/01/16 01:20:46;;;;;;;16.08;5.25;;;;;;;;;;5039105;28;20485;-76
2022/01/16 01:23:12;;;;;;;15.13;6.00;;;;;;;;;;5045751;28;20098;-76
2022/01/16 01:25:39;;;;;;;11.23;5.20;;;;;;;;;;5044175;28;20471;-77
2022/01/16 01:28:06;;;;;;;8.75;4.40;;;;;;;;;;5041741;28;20029;-77
2022/01/16 01:30:32;;;;;;;8.95;2.75;;;;;;;;;;5034860;28;20053;-77
2022/01/16 01:32:59;;;;;;;12.20;3.83;;;;;;;;;;5040995;28;20741;-77
2022/01/16 01:35:25;;;;;;;17.23;5.22;;;;;;;;;;5039097;28;20162;-77
2022/01/16 01:37:51;;;;;;;10.80;3.78;;;;;;;;;;5044352;28;20071;-76
2022/01/16 01:40:19;;;;;;;9.38;4.35;;;;;;;;;;5042582;28;20115;-76
2022/01/16 01:51:04;;;;;;;13.63;4.15;;;;;;;;;;5042747;28;20049;-77
2022/01/16 01:51:07;;;;;;;13.35;4.30;;;;;;;;;;5039093;28;20036;-77
2022/01/16 01:53:33;;;;;;;9.40;3.35;;;;;;;;;;5041932;28;20078;-77
2022/01/16 01:55:59;;;;;;;15.00;3.47;;;;;;;;;;5043202;28;22027;-76
2022/01/16 01:58:25;;;;;;;15.65;5.13;;;;;;;;;;5040030;28;20028;-76
2022/01/16 02:00:51;;;;;;;5.50;3.05;;;;;;;;;;5034041;28;20044;-76
2022/01/16 02:03:32;;;;;;;12.70;3.70;;;;;;;;;;5040770;28;20063;-77
2022/01/16 02:05:58;;;;;;;12.95;4.80;;;;;;;;;;5037666;28;20036;-77
2022/01/16 02:08:24;;;;;;;9.93;4.07;;;;;;;;;;5036219;28;20028;-77
2022/01/16 02:10:50;;;;;;;13.70;4.75;;;;;;;;;;5044377;28;20054;-78
2022/01/16 02:13:25;;;;;;;13.48;5.05;;;;;;;;;;5042825;28;20029;-77
2022/01/16 02:27:59;;;;;;;9.98;3.33;;;;;;;;;;5034543;28;20148;-77
2022/01/16 02:35:03;;;;;;;10.23;4.43;;;;;;;;;;5035865;28;20028;-77
2022/01/16 02:37:29;;;;;;;15.23;4.32;;;;;;;;;;5045212;28;21065;-77
2022/01/16 02:40:02;;;;;;;10.35;4.57;;;;;;;;;;5045900;28;20059;-77
2022/01/16 02:42:35;;;;;;;12.13;3.83;;;;;;;;;;5047787;28;20040;-77
2022/01/16 02:45:03;;;;;;;14.68;4.97;;;;;;;;;;5037679;28;20068;-77
2022/01/16 02:47:29;;;;;;;18.88;5.93;;;;;;;;;;5043896;28;20125;-76
2022/01/16 02:49:55;;;;;;;12.70;4.90;;;;;;;;;;5043731;28;20029;-77
2022/01/16 02:52:22;;;;;;;10.40;3.85;;;;;;;;;;5047846;28;20024;-76
2022/01/16 02:54:50;;;;;;;12.80;5.20;;;;;;;;;;5048543;28;20028;-77
2022/01/16 02:57:17;;;;;;;9.65;4.53;;;;;;;;;;5052149;28;20738;-77
2022/01/16 02:59:48;;;;;;;12.55;4.75;;;;;;;;;;5041436;28;20033;-77
2022/01/16 03:02:15;;;;;;;18.88;5.28;;;;;;;;;;5045595;28;20047;-77
2022/01/16 03:04:41;;;;;;;9.02;3.85;;;;;;;;;;5040645;28;20165;-77
2022/01/16 03:07:08;;;;;;;8.88;2.92;;;;;;;;;;5043703;28;20029;-77
2022/01/16 03:12:09;;;;;;;9.75;4.35;;;;;;;;;;5047958;28;20047;-77
2022/01/16 03:14:36;;;;;;;6.63;3.40;;;;;;;;;;5044843;28;20045;-77
2022/01/16 03:17:02;;;;;;;10.95;3.67;;;;;;;;;;5042771;28;20468;-77
2022/01/16 03:22:13;;;;;;;18.33;4.93;;;;;;;;;;5044839;28;20564;-76
2022/01/16 03:24:40;;;;;;;23.75;6.18;;;;;;;;;;5042116;28;20062;-76
2022/01/16 03:27:08;;;;;;;16.02;6.30;;;;;;;;;;5045827;28;20032;-76
2022/01/16 03:29:34;;;;;;;17.50;6.22;;;;;;;;;;5041495;28;20161;-77
2022/01/16 03:32:02;;;;;;;14.65;4.63;;;;;;;;;;5042827;28;20392;-77
2022/01/16 03:34:28;;;;;;;12.48;4.05;;;;;;;;;;5036400;28;20164;-77
2022/01/16 03:36:54;;;;;;;16.90;4.85;;;;;;;;;;5033490;28;20032;-77
2022/01/16 03:39:20;;;;;;;14.85;5.38;;;;;;;;;;5045280;28;20052;-76
2022/01/16 03:41:46;;;;;;;13.88;5.13;;;;;;;;;;5045119;28;20035;-77
2022/01/16 03:44:13;;;;;;;11.70;5.45;;;;;;;;;;5036106;28;20021;-76
2022/01/16 03:46:40;;;;;;;11.85;5.03;;;;;;;;;;5039791;28;20064;-77
2022/01/16 03:49:07;;;;;;;16.52;5.47;;;;;;;;;;5049207;28;20048;-77
2022/01/16 03:51:34;;;;;;;11.10;4.90;;;;;;;;;;5042712;28;20032;-78
2022/01/16 03:54:00;;;;;;;11.80;4.88;;;;;;;;;;5039507;28;20028;-76
2022/01/16 03:56:26;;;;;;;15.82;5.40;;;;;;;;;;5046613;28;20530;-77
2022/01/16 03:58:52;;;;;;;12.25;4.57;;;;;;;;;;5041933;28;20036;-77
2022/01/16 04:01:18;;;;;;;19.40;6.07;;;;;;;;;;5040107;28;20032;-77
2022/01/16 04:03:44;;;;;;;14.55;5.43;;;;;;;;;;5045780;28;20503;-77
2022/01/16 04:06:10;;;;;;;11.98;4.03;;;;;;;;;;5042246;28;20473;-77
2022/01/16 04:08:36;;;;;;;12.02;4.97;;;;;;;;;;5044708;28;20051;-77
2022/01/16 04:11:02;;;;;;;17.67;7.03;;;;;;;;;;5044014;28;20639;-77
2022/01/16 04:13:31;;;;;;;19.13;6.25;;;;;;;;;;5042007;28;20039;-77
2022/01/16 04:15:57;;;;;;;11.43;4.35;;;;;;;;;;5038301;28;20029;-77
2022/01/16 04:18:23;;;;;;;9.15;2.78;;;;;;;;;;5044652;28;20128;-78
2022/01/16 04:20:49;;;;;;;9.48;3.63;;;;;;;;;;5045451;28;20035;-77
2022/01/16 04:23:15;;;;;;;15.45;4.32;;;;;;;;;;5032891;28;20574;-77
2022/01/16 04:25:41;;;;;;;18.20;4.03;;;;;;;;;;5042508;28;20029;-76
2022/01/16 04:28:07;;;;;;;11.30;4.57;;;;;;;;;;5044966;28;20025;-78
2022/01/16 04:30:33;;;;;;;9.90;4.05;;;;;;;;;;5040846;28;20106;-76
2022/01/16 04:32:59;;;;;;;8.82;3.25;;;;;;;;;;5043442;28;20182;-76
2022/01/16 04:35:25;;;;;;;9.95;3.90;;;;;;;;;;5041904;28;20032;-77
2022/01/16 04:37:51;;;;;;;17.83;4.65;;;;;;;;;;5041614;28;20369;-77
2022/01/16 04:40:17;;;;;;;15.45;4.20;;;;;;;;;;5033687;28;20031;-77
2022/01/16 04:45:28;;;;;;;16.55;5.00;;;;;;;;;;5038347;28;21800;-77
2022/01/16 04:47:55;;;;;;;9.13;4.13;;;;;;;;;;5030576;28;20033;-77
2022/01/16 04:50:22;;;;;;;15.77;5.30;;;;;;;;;;5044140;28;20044;-77
2022/01/16 04:52:49;;;;;;;10.23;3.90;;;;;;;;;;5040435;28;20024;-77
2022/01/16 04:55:15;;;;;;;9.77;4.18;;;;;;;;;;5043312;28;20028;-77
2022/01/16 04:57:41;;;;;;;18.23;5.25;;;;;;;;;;5039656;28;20028;-77
2022/01/16 05:00:13;;;;;;;12.38;4.55;;;;;;;;;;5039627;28;20028;-77
2022/01/16 05:02:39;;;;;;;15.85;5.68;;;;;;;;;;5044383;28;21223;-77
2022/01/16 05:05:05;;;;;;;8.98;3.88;;;;;;;;;;5037224;28;20136;-76
2022/01/16 05:07:31;;;;;;;23.08;6.40;;;;;;;;;;5043497;28;20081;-77
2022/01/16 05:09:57;;;;;;;18.55;6.68;;;;;;;;;;5038503;28;20041;-77
2022/01/16 05:12:29;;;;;;;13.93;4.93;;;;;;;;;;5041348;28;20032;-77
2022/01/16 05:17:40;;;;;;;8.55;4.10;;;;;;;;;;5040520;28;20050;-77
2022/01/16 05:20:06;;;;;;;13.85;5.05;;;;;;;;;;5036225;28;20029;-76
2022/01/16 05:22:32;;;;;;;11.15;4.18;;;;;;;;;;5041786;28;20047;-77
2022/01/16 05:24:58;;;;;;;22.70;6.78;;;;;;;;;;5044010;28;20029;-77
2022/01/16 05:27:24;;;;;;;24.88;6.57;;;;;;;;;;5039982;28;20028;-77
2022/01/16 05:29:50;;;;;;;17.48;5.13;;;;;;;;;;5035523;28;20063;-77
2022/01/16 05:32:16;;;;;;;20.15;7.00;;;;;;;;;;5044457;28;20097;-76
2022/01/16 05:34:42;;;;;;;21.55;6.35;;;;;;;;;;5035696;28;20084;-77
2022/01/16 05:37:08;;;;;;;17.05;5.25;;;;;;;;;;5040543;28;20032;-77
2022/01/16 05:39:35;;;;;;;15.73;5.68;;;;;;;;;;5039705;28;20054;-77
2022/01/16 05:42:01;;;;;;;19.15;6.28;;;;;;;;;;5040837;28;20033;-76
2022/01/16 05:44:27;;;;;;;20.73;8.20;;;;;;;;;;5040888;28;20087;-77
2022/01/16 05:46:53;;;;;;;16.90;7.90;;;;;;;;;;5038559;28;20060;-77
2022/01/16 05:49:19;;;;;;;17.88;7.32;;;;;;;;;;5037563;28;20163;-76
2022/01/16 05:51:45;;;;;;;17.30;6.25;;;;;;;;;;5039483;28;20048;-78
2022/01/16 05:54:11;;;;;;;18.70;7.45;;;;;;;;;;5039252;28;20032;-76
2022/01/16 05:56:37;;;;;;;21.55;6.95;;;;;;;;;;5040531;28;20043;-77
2022/01/16 05:59:03;;;;;;;27.67;8.52;;;;;;;;;;5038037;28;21837;-77
2022/01/16 06:01:29;;;;;;;21.02;9.30;;;;;;;;;;5040219;28;21020;-77
2022/01/16 06:03:54;;;;;;;21.88;8.10;;;;;;;;;;5039748;28;20175;-77
2022/01/16 06:06:20;;;;;;;20.10;9.20;;;;;;;;;;5044708;28;20032;-76
2022/01/16 06:08:48;;;;;;;21.30;9.52;;;;;;;;;;5046023;28;20037;-77
2022/01/16 06:11:14;;;;;;;22.17;7.63;;;;;;;;;;5038801;28;20036;-78
2022/01/16 06:13:40;;;;;;;17.02;6.95;;;;;;;;;;5042037;28;20116;-77
2022/01/16 06:16:06;;;;;;;20.88;6.45;;;;;;;;;;5043900;28;21001;-77
2022/01/16 06:18:32;;;;;;;26.77;7.55;;;;;;;;;;5045646;28;20033;-78
2022/01/16 06:20:58;;;;;;;21.05;6.93;;;;;;;;;;5042041;28;20126;-78
2022/01/16 06:23:24;;;;;;;16.40;6.15;;;;;;;;;;5036486;28;20041;-78
2022/01/16 06:25:54;;;;;;;16.42;5.38;;;;;;;;;;5031902;28;20044;-76
2022/01/16 06:28:20;;;;;;;17.05;6.28;;;;;;;;;;5037537;28;20052;-78
2022/01/16 06:30:46;;;;;;;24.35;9.48;;;;;;;;;;5036306;28;20048;-78
2022/01/16 06:33:12;;;;;;;19.92;7.20;;;;;;;;;;5044810;28;21957;-76
2022/01/16 06:35:38;;;;;;;26.58;9.20;;;;;;;;;;5040099;28;20484;-77
2022/01/16 06:38:04;;;;;;;20.67;8.88;;;;;;;;;;5039912;28;20063;-77
2022/01/16 06:40:31;;;;;;;24.17;8.98;;;;;;;;;;5035574;28;20053;-77
2022/01/16 06:42:56;;;;;;;24.15;8.57;;;;;;;;;;5035919;28;20485;-76
2022/01/16 06:45:22;;;;;;;29.40;11.23;;;;;;;;;;5035519;28;20040;-77
2022/01/16 06:47:49;;;;;;;35.70;10.98;;;;;;;;;;5040983;28;20583;-77
2022/01/16 06:50:15;;;;;;;24.10;8.57;;;;;;;;;;5042981;28;20028;-77
2022/01/16 06:52:41;;;;;;;14.82;8.23;;;;;;;;;;5041930;28;20036;-77
2022/01/16 06:55:07;;;;;;;29.17;10.32;;;;;;;;;;5040899;28;20673;-77
2022/01/16 06:57:33;;;;;;;25.27;9.45;;;;;;;;;;5040211;28;20033;-77
2022/01/16 06:59:59;;;;;;;16.80;7.70;;;;;;;;;;5035499;28;20170;-77
2022/01/16 07:02:27;;;;;;;19.30;7.78;;;;;;;;;;5039572;28;20079;-78
2022/01/16 07:04:53;;;;;;;25.35;10.57;;;;;;;;;;5040608;28;20037;-77
2022/01/16 07:07:19;;;;;;;27.00;9.00;;;;;;;;;;5029893;28;20048;-77
2022/01/16 07:09:45;;;;;;;24.83;10.18;;;;;;;;;;5043446;28;20020;-78
2022/01/16 07:12:11;;;;;;;30.02;9.10;;;;;;;;;;5039493;28;20116;-76
2022/01/16 07:14:37;;;;;;;20.67;7.20;;;;;;;;;;5038155;28;20138;-77
2022/01/16 07:17:03;;;;;;;17.27;7.32;;;;;;;;;;5041645;28;20155;-77
2022/01/16 07:19:29;;;;;;;20.48;8.10;;;;;;;;;;5038576;28;20032;-78
2022/01/16 07:21:55;;;;;;;20.83;8.50;;;;;;;;;;5040464;28;20464;-76
2022/01/16 07:24:22;;;;;;;23.05;7.47;;;;;;;;;;5043061;28;20032;-78
2022/01/16 07:26:48;;;;;;;21.52;8.57;;;;;;;;;;5042196;28;20028;-77
2022/01/16 07:29:14;;;;;;;25.13;8.52;;;;;;;;;;5048711;28;20096;-77
2022/01/16 07:31:40;;;;;;;20.58;8.20;;;;;;;;;;5044399;28;20063;-78
2022/01/16 07:34:06;;;;;;;23.85;9.77;;;;;;;;;;5046460;28;20036;-78
2022/01/16 07:36:32;;;;;;;26.25;9.73;;;;;;;;;;5050375;28;20677;-77
2022/01/16 07:38:58;;;;;;;24.42;8.43;;;;;;;;;;5047432;28;20404;-78
2022/01/16 07:41:24;;;;;;;20.45;8.63;;;;;;;;;;5046477;28;20278;-77
2022/01/16 07:43:50;;;;;;;26.00;8.60;;;;;;;;;;5044811;28;22276;-77
2022/01/16 07:46:19;;;;;;;28.17;9.38;;;;;;;;;;5050340;28;20040;-77
2022/01/16 07:48:45;;;;;;;23.90;8.25;;;;;;;;;;5043085;28;20028;-78
2022/01/16 07:51:11;;;;;;;26.27;9.32;;;;;;;;;;5046765;28;20035;-77
2022/01/16 07:53:37;;;;;;;23.23;10.93;;;;;;;;;;5040398;28;20028;-78
2022/01/16 07:56:04;;;;;;;22.15;9.30;;;;;;;;;;5045007;28;20028;-78
2022/01/16 07:58:30;;;;;;;25.33;10.00;;;;;;;;;;5041778;28;20051;-78
2022/01/16 08:00:59;;;;;;;17.80;7.93;;;;;;;;;;5042242;28;20037;-78
2022/01/16 08:03:25;;;;;;;22.67;8.60;;;;;;;;;;5050457;28;20041;-77
2022/01/16 08:05:51;;;;;;;27.23;11.25;;;;;;;;;;5043306;28;20098;-77
2022/01/16 08:08:17;;;;;;;29.40;10.63;;;;;;;;;;5045734;28;20041;-78
2022/01/16 08:10:43;;;;;;;23.00;10.43;;;;;;;;;;5046832;28;20036;-78
2022/01/16 08:13:08;;;;;;;26.33;10.48;;;;;;;;;;5047052;28;20029;-79
2022/01/16 08:15:34;;;;;;;18.52;6.80;;;;;;;;;;5037217;28;20753;-79
2022/01/16 08:18:00;;;;;;;24.30;10.65;;;;;;;;;;5041059;28;20838;-78
2022/01/16 08:20:26;;;;;;;25.55;9.85;;;;;;;;;;5049441;28;20032;-78
2022/01/16 08:22:53;;;;;;;24.95;11.30;;;;;;;;;;5049986;28;20036;-78
2022/01/16 08:25:19;;;;;;;25.98;7.63;;;;;;;;;;5053300;28;20548;-78
2022/01/16 08:27:45;;;;;;;21.90;8.95;;;;;;;;;;5039673;28;20104;-77
2022/01/16 08:30:11;;;;;;;23.42;9.90;;;;;;;;;;5043157;28;20021;-79
2022/01/16 08:32:38;;;;;;;23.20;7.63;;;;;;;;;;5043994;28;20529;-78
2022/01/16 08:35:05;;;;;;;24.48;9.90;;;;;;;;;;5046439;28;20025;-78
2022/01/16 08:37:31;;;;;;;20.17;7.35;;;;;;;;;;5045656;28;20031;-79
2022/01/16 08:39:57;;;;;;;35.50;8.75;;;;;;;;;;5048368;28;20821;-78
2022/01/16 08:42:23;;;;;;;23.00;7.57;;;;;;;;;;5044680;28;20048;-78
2022/01/16 08:44:51;;;;;;;31.40;9.80;;;;;;;;;;5049749;28;20029;-78
2022/01/16 08:47:18;;;;;;;32.60;8.63;;;;;;;;;;5044983;28;20036;-78
2022/01/16 08:49:44;;;;;;;22.90;8.10;;;;;;;;;;5043218;28;20425;-77
2022/01/16 08:52:10;;;;;;;26.00;7.78;;;;;;;;;;5043437;28;20033;-78
2022/01/16 08:54:36;;;;;;;25.08;7.20;;;;;;;;;;5047143;28;20040;-78
2022/01/16 08:57:02;;;;;;;30.95;10.25;;;;;;;;;;5047840;28;20033;-77
2022/01/16 08:59:28;;;;;;;31.85;10.73;;;;;;;;;;5046374;28;20564;-79
2022/01/16 09:01:54;;;;;;;31.70;7.60;;;;;;;;;;5046254;28;20099;-80
2022/01/16 09:04:20;;;;;;;24.15;7.65;;;;;;;;;;5050472;28;21220;-78
2022/01/16 09:06:46;;;;;;;22.52;8.73;;;;;;;;;;5050840;28;20040;-78
2022/01/16 09:09:12;;;;;;;23.83;8.55;;;;;;;;;;5049112;28;20029;-78
2022/01/16 09:11:38;;;;;;;27.88;10.00;;;;;;;;;;5047589;28;20029;-77
2022/01/16 09:14:04;;;;;;;20.13;8.15;;;;;;;;;;5049832;28;20028;-77
2022/01/16 09:16:31;;;;;;;18.50;7.32;;;;;;;;;;5051193;28;20147;-78
2022/01/16 09:18:57;;;;;;;19.02;8.05;;;;;;;;;;5041673;28;20056;-78
2022/01/16 09:21:23;;;;;;;24.35;7.07;;;;;;;;;;5052121;28;20480;-78
2022/01/16 09:23:50;;;;;;;15.23;7.03;;;;;;;;;;5053361;28;20037;-77
2022/01/16 09:26:16;;;;;;;22.58;8.05;;;;;;;;;;5045563;28;20024;-77
2022/01/16 09:28:43;;;;;;;18.33;7.97;;;;;;;;;;5046025;28;20033;-78
2022/01/16 09:31:09;;;;;;;21.08;7.93;;;;;;;;;;5048195;28;20025;-77
2022/01/16 09:33:35;;;;;;;24.00;8.38;;;;;;;;;;5043955;28;20029;-77
2022/01/16 09:36:02;;;;;;;22.45;7.75;;;;;;;;;;5039343;28;20036;-78
2022/01/16 09:38:28;;;;;;;26.60;10.52;;;;;;;;;;5043796;28;20148;-77
2022/01/16 09:40:55;;;;;;;20.17;8.23;;;;;;;;;;5040989;28;20021;-78
2022/01/16 09:43:21;;;;;;;19.80;8.45;;;;;;;;;;5047037;28;20093;-77
2022/01/16 09:45:48;;;;;;;19.17;6.55;;;;;;;;;;5042749;28;20037;-78
2022/01/16 09:48:16;;;;;;;19.65;8.43;;;;;;;;;;5043969;28;20029;-78
2022/01/16 09:50:42;;;;;;;19.35;6.95;;;;;;;;;;5047029;28;20032;-77
2022/01/16 09:53:08;;;;;;;23.60;8.20;;;;;;;;;;5045989;28;20445;-78
2022/01/16 09:55:34;;;;;;;23.60;7.45;;;;;;;;;;5048000;28;20035;-77
2022/01/16 09:58:00;;;;;;;19.55;7.03;;;;;;;;;;5043071;28;20036;-76
2022/01/16 10:00:27;;;;;;;29.90;9.48;;;;;;;;;;5045921;28;20059;-76
2022/01/16 10:02:53;;;;;;;15.40;5.55;;;;;;;;;;5045958;28;20105;-77
2022/01/16 10:05:22;;;;;;;25.58;9.25;;;;;;;;;;5046362;28;20033;-77
2022/01/16 10:07:49;;;;;;;18.17;6.57;;;;;;;;;;5047199;28;20089;-78
2022/01/16 10:10:15;;;;;;;24.52;8.40;;;;;;;;;;5043115;28;20037;-77
2022/01/16 10:12:47;;;;;;;14.40;7.47;;;;;;;;;;5046881;28;20033;-77
2022/01/16 10:15:20;;;;;;;16.35;7.15;;;;;;;;;;5043608;28;20060;-77
2022/01/16 10:17:48;;;;;;;19.83;6.88;;;;;;;;;;5057182;28;20102;-77
2022/01/16 10:20:16;;;;;;;14.65;5.57;;;;;;;;;;5057267;28;20032;-77
2022/01/16 10:22:43;;;;;;;18.70;5.53;;;;;;;;;;5061845;28;20064;-77
2022/01/16 10:25:09;;;;;;;14.52;5.40;;;;;;;;;;5042812;28;22085;-79
2022/01/16 10:27:37;;;;;;;17.55;5.88;;;;;;;;;;5042106;28;20561;-78
2022/01/16 10:30:07;;;;;;;13.63;5.32;;;;;;;;;;5030388;28;20167;-77
2022/01/16 10:32:36;;;;;;;18.50;6.10;;;;;;;;;;5031458;28;20069;-76
2022/01/16 10:35:09;;;;;;;11.40;4.93;;;;;;;;;;5041305;28;20029;-76
2022/01/16 10:37:35;;;;;;;15.80;5.70;;;;;;;;;;5039748;28;20032;-78
2022/01/16 10:40:05;;;;;;;15.55;5.28;;;;;;;;;;5044070;28;20032;-76
2022/01/16 10:42:32;;;;;;;11.05;4.38;;;;;;;;;;5042054;28;20074;-77
2022/01/16 10:45:00;;;;;;;12.27;5.28;;;;;;;;;;5041930;28;20079;-78
2022/01/16 10:47:28;;;;;;;10.45;5.30;;;;;;;;;;5044161;28;20032;-77
2022/01/16 10:50:01;;;;;;;18.10;5.55;;;;;;;;;;5042918;28;20029;-76
2022/01/16 10:52:27;;;;;;;18.90;6.70;;;;;;;;;;5042696;28;20071;-77
2022/01/16 10:54:53;;;;;;;19.13;5.88;;;;;;;;;;5047255;28;20056;-77
2022/01/16 10:57:19;;;;;;;17.20;6.60;;;;;;;;;;5065110;28;20028;-77
2022/01/16 10:59:45;;;;;;;12.07;5.63;;;;;;;;;;5050621;28;20025;-77
2022/01/16 11:02:12;;;;;;;31.63;6.40;;;;;;;;;;5043524;28;20087;-77
2022/01/16 11:04:37;;;;;;;14.60;7.05;;;;;;;;;;5049821;28;20039;-77
2022/01/16 11:07:05;;;;;;;22.75;7.00;;;;;;;;;;5044454;28;20032;-77
2022/01/16 11:09:32;;;;;;;13.27;7.65;;;;;;;;;;5049861;28;20037;-77
2022/01/16 11:12:02;;;;;;;20.15;7.22;;;;;;;;;;5042672;28;20407;-77
2022/01/16 11:14:28;;;;;;;19.63;8.02;;;;;;;;;;5033005;28;20033;-76
2022/01/16 11:16:55;;;;;;;19.45;7.43;;;;;;;;;;5045212;28;20021;-77
2022/01/16 11:19:23;;;;;;;20.70;5.78;;;;;;;;;;5039982;28;20029;-76
2022/01/16 11:21:53;;;;;;;14.43;5.60;;;;;;;;;;5038010;28;20096;-76
2022/01/16 11:24:47;;;;;;;18.77;8.18;;;;;;;;;;5045480;28;20068;-77
2022/01/16 11:27:16;;;;;;;23.85;8.95;;;;;;;;;;5050315;28;20064;-76
2022/01/16 11:29:43;;;;;;;25.90;7.78;;;;;;;;;;5049742;28;20485;-77
2022/01/16 11:32:09;;;;;;;9.85;5.10;;;;;;;;;;5051291;28;20317;-77
2022/01/16 11:34:36;;;;;;;22.95;6.57;;;;;;;;;;5046721;28;20567;-77
2022/01/16 11:37:02;;;;;;;12.57;5.70;;;;;;;;;;5044042;28;20091;-76
2022/01/16 11:39:35;;;;;;;21.77;7.35;;;;;;;;;;5043084;28;20149;-78
2022/01/16 11:42:02;;;;;;;26.25;8.07;;;;;;;;;;5043974;28;20040;-77
2022/01/16 11:44:29;;;;;;;14.93;5.28;;;;;;;;;;5041130;28;20059;-76
2022/01/16 11:46:56;;;;;;;27.85;6.32;;;;;;;;;;5043535;28;20024;-77
2022/01/16 11:49:36;;;;;;;16.67;6.00;;;;;;;;;;5040477;28;20909;-76
2022/01/16 11:52:15;;;;;;;19.67;6.65;;;;;;;;;;5047310;28;20033;-77
2022/01/16 11:54:45;;;;;;;15.35;7.68;;;;;;;;;;5032972;28;20056;-77
2022/01/16 11:57:20;;;;;;;19.75;6.80;;;;;;;;;;5040755;28;20270;-76
2022/01/16 11:59:48;;;;;;;13.30;5.50;;;;;;;;;;5042923;28;20029;-77
2022/01/16 12:02:15;;;;;;;18.67;6.88;;;;;;;;;;5045773;28;20642;-77
2022/01/16 12:04:41;;;;;;;21.63;7.15;;;;;;;;;;5044392;28;20107;-76
2022/01/16 12:07:13;;;;;;;16.65;7.30;;;;;;;;;;5045595;28;20465;-76
2022/01/16 12:12:11;;;;;;;32.50;10.30;;;;;;;;;;5042245;28;20035;-76
2022/01/16 12:14:46;;;;;;;23.10;7.75;;;;;;;;;;5036958;28;20032;-76
2022/01/16 12:17:26;;;;;;;16.70;7.07;;;;;;;;;;5027497;28;20105;-76
2022/01/16 12:19:53;;;;;;;26.42;8.02;;;;;;;;;;5036822;28;20124;-76
2022/01/16 12:22:20;;;;;;;21.10;6.68;;;;;;;;;;5039524;28;20037;-75
2022/01/16 12:25:03;;;;;;;15.50;7.35;;;;;;;;;;5031372;28;20490;-75
2022/01/16 12:27:31;;;;;;;17.92;6.43;;;;;;;;;;5040350;28;20037;-76
2022/01/16 12:30:09;;;;;;;20.13;7.03;;;;;;;;;;5039000;28;20120;-74
2022/01/16 12:32:50;;;;;;;20.90;8.05;;;;;;;;;;5037113;28;20039;-76
2022/01/16 12:35:36;;;;;;;27.30;9.10;;;;;;;;;;5039436;28;20036;-76
2022/01/16 12:38:25;;;;;;;28.10;8.85;;;;;;;;;;5037220;28;20647;-76
2022/01/16 12:40:59;;;;;;;32.95;8.73;;;;;;;;;;5039759;28;20159;-76
2022/01/16 12:43:29;;;;;;;23.70;8.93;;;;;;;;;;5035607;28;20045;-75
2022/01/16 12:45:55;;;;;;;20.40;8.07;;;;;;;;;;5035702;28;20033;-77
2022/01/16 12:48:22;;;;;;;24.23;10.70;;;;;;;;;;5039356;28;20041;-76
2022/01/16 12:50:48;;;;;;;26.63;8.52;;;;;;;;;;5041025;28;20032;-76
2022/01/16 12:53:14;;;;;;;34.05;9.30;;;;;;;;;;5032261;28;20040;-75
2022/01/16 12:55:40;;;;;;;26.05;9.38;;;;;;;;;;5043180;28;20614;-76
2022/01/16 12:58:16;;;;;;;31.10;11.02;;;;;;;;;;5039146;28;20064;-75
2022/01/16 13:00:58;;;;;;;20.48;9.63;;;;;;;;;;5040938;28;20029;-76
2022/01/16 13:03:25;;;;;;;35.17;11.10;;;;;;;;;;5041708;28;20032;-76
2022/01/16 13:05:51;;;;;;;19.83;7.45;;;;;;;;;;5037081;28;20036;-75
2022/01/16 13:08:17;;;;;;;19.17;8.18;;;;;;;;;;5031228;28;20032;-76
2022/01/16 13:10:43;;;;;;;21.90;8.48;;;;;;;;;;5022951;28;20037;-77
2022/01/16 13:13:12;;;;;;;34.20;9.73;;;;;;;;;;5042452;28;20029;-76
2022/01/16 13:15:38;;;;;;;32.70;8.73;;;;;;;;;;5037317;28;20032;-76
2022/01/16 13:18:11;;;;;;;27.67;9.48;;;;;;;;;;5039695;28;20045;-76
2022/01/16 13:20:37;;;;;;;20.05;7.72;;;;;;;;;;5036486;28;20093;-77
2022/01/16 13:23:03;;;;;;;26.00;7.97;;;;;;;;;;5037123;28;20470;-75
2022/01/16 13:25:29;;;;;;;26.58;9.63;;;;;;;;;;5035706;28;20082;-76
2022/01/16 13:27:58;;;;;;;28.08;9.18;;;;;;;;;;5039394;28;20029;-76
2022/01/16 13:30:26;;;;;;;28.95;8.00;;;;;;;;;;5032549;28;20481;-75
2022/01/16 13:32:52;;;;;;;29.25;9.73;;;;;;;;;;5028943;28;20037;-75
2022/01/16 13:35:21;;;;;;;32.08;9.30;;;;;;;;;;5031523;28;20070;-76
2022/01/16 13:37:49;;;;;;;31.73;8.13;;;;;;;;;;5039400;28;20037;-75
2022/01/16 13:40:16;;;;;;;19.98;7.10;;;;;;;;;;5030185;28;20037;-75
2022/01/16 13:45:15;;;;;;;19.05;6.43;;;;;;;;;;5035080;28;20041;-75
2022/01/16 13:47:49;;;;;;;29.77;9.45;;;;;;;;;;5034065;28;20082;-75
2022/01/16 13:50:15;;;;;;;41.58;10.05;;;;;;;;;;5037160;28;20390;-75
2022/01/16 13:52:50;;;;;;;21.63;9.57;;;;;;;;;;5040520;28;20093;-75
2022/01/16 13:55:16;;;;;;;24.58;8.73;;;;;;;;;;5033104;28;20400;-75
2022/01/16 13:57:42;;;;;;;26.42;9.63;;;;;;;;;;5038647;28;20021;-75
2022/01/16 14:00:09;;;;;;;24.80;9.15;;;;;;;;;;5034249;28;20132;-75
2022/01/16 14:02:36;;;;;;;25.42;11.52;;;;;;;;;;5036842;28;21037;-75
2022/01/16 14:05:02;;;;;;;31.65;11.52;;;;;;;;;;5039810;28;20828;-75
2022/01/16 14:07:28;;;;;;;35.33;11.15;;;;;;;;;;5037306;28;20551;-76
2022/01/16 14:09:56;;;;;;;31.98;10.77;;;;;;;;;;5035030;28;20036;-75
2022/01/16 14:12:22;;;;;;;28.95;9.27;;;;;;;;;;5035687;28;20060;-76
2022/01/16 14:14:49;;;;;;;21.65;8.95;;;;;;;;;;5036926;28;20032;-76
2022/01/16 14:17:29;;;;;;;29.52;12.48;;;;;;;;;;5036313;28;20121;-75
2022/01/16 14:20:23;;;;;;;25.27;9.18;;;;;;;;;;5040325;28;20028;-75
2022/01/16 14:22:47;;;;;;;19.13;9.10;;;;;;;;;;5039464;28;20041;-75
2022/01/16 14:25:13;;;;;;;33.67;8.95;;;;;;;;;;5043470;28;20037;-75
2022/01/16 14:27:39;;;;;;;36.20;9.68;;;;;;;;;;5052234;28;20088;-76
2022/01/16 14:30:07;;;;;;;23.80;8.55;;;;;;;;;;5037984;28;20123;-76
2022/01/16 14:32:33;;;;;;;18.40;8.02;;;;;;;;;;5029074;28;20063;-76
2022/01/16 14:35:00;;;;;;;23.70;8.82;;;;;;;;;;5032883;28;20059;-76
2022/01/16 14:37:27;;;;;;;21.85;9.45;;;;;;;;;;5041913;28;20115;-76
2022/01/16 14:39:53;;;;;;;32.55;10.30;;;;;;;;;;5042928;28;20021;-77
2022/01/16 14:42:23;;;;;;;24.20;9.65;;;;;;;;;;4998681;28;1128714;-75
2022/01/16 14:44:49;;;;;;;20.85;8.05;;;;;;;;;;5037605;28;20112;-77
2022/01/16 14:47:15;;;;;;;33.17;9.45;;;;;;;;;;5031485;28;20040;-77
2022/01/16 14:49:42;;;;;;;22.08;9.65;;;;;;;;;;5039969;28;20028;-77
2022/01/16 14:52:08;;;;;;;27.58;10.73;;;;;;;;;;5042945;28;20071;-76
2022/01/16 14:54:34;;;;;;;29.13;11.80;;;;;;;;;;5043387;28;22104;-74
2022/01/16 14:57:00;;;;;;;29.25;11.30;;;;;;;;;;5034643;28;20028;-77
2022/01/16 14:59:30;;;;;;;30.30;11.50;;;;;;;;;;5034467;28;20036;-77
2022/01/16 15:01:56;;;;;;;19.35;8.70;;;;;;;;;;5044436;28;20032;-76
2022/01/16 15:04:22;;;;;;;26.35;11.25;;;;;;;;;;5034953;28;20538;-78
2022/01/16 15:06:48;;;;;;;30.50;11.02;;;;;;;;;;5034666;28;20690;-77
2022/01/16 15:09:14;;;;;;;22.10;10.20;;;;;;;;;;5038129;28;20025;-78
2022/01/16 15:11:40;;;;;;;30.92;10.63;;;;;;;;;;5042325;28;20883;-77